createdAt,value
2023-03-23T15:58:44.119Z,13.20
2023-03-23T16:01:19.896Z,13.20
2023-03-23T16:04:03.423Z,13.30
2023-03-23T16:06:33.492Z,13.30
2023-03-23T16:09:01.752Z,13.30
2023-03-23T16:11:31.430Z,13.30
2023-03-23T16:13:59.773Z,13.30
2023-03-23T16:16:32.652Z,13.40
2023-03-23T16:18:59.838Z,13.40
2023-03-23T16:21:27.067Z,13.40
2023-03-23T16:23:55.365Z,13.40
2023-03-23T16:26:25.998Z,13.30
2023-03-23T16:28:57.393Z,13.30
2023-03-23T16:31:30.368Z,13.40
2023-03-23T16:33:57.547Z,13.40
2023-03-23T16:36:24.736Z,13.40
2023-03-23T16:38:54.271Z,13.40
2023-03-23T16:41:21.850Z,13.50
2023-03-23T16:43:48.962Z,13.40
2023-03-23T16:46:16.288Z,13.50
2023-03-23T16:48:43.623Z,13.40
2023-03-23T16:51:10.928Z,13.40
2023-03-23T16:53:38.099Z,13.40
2023-03-23T16:56:05.603Z,13.40
2023-03-23T16:58:32.764Z,13.40
2023-03-23T17:01:02.068Z,13.40
2023-03-23T17:03:29.609Z,13.20
2023-03-23T17:05:56.756Z,13.20
2023-03-23T17:08:23.854Z,13.30
2023-03-23T17:10:50.980Z,13.30
2023-03-23T17:13:18.554Z,13.30
2023-03-23T17:15:47.361Z,13.20
2023-03-23T17:18:16.563Z,13.10
2023-03-23T17:20:44.484Z,13.00
2023-03-23T17:23:11.932Z,12.90
2023-03-23T17:25:39.085Z,12.90
2023-03-23T17:28:06.974Z,12.90
2023-03-23T17:30:35.736Z,12.80
2023-03-23T17:33:03.172Z,12.70
2023-03-23T17:35:30.564Z,12.70
2023-03-23T17:37:57.957Z,12.70
2023-03-23T17:40:25.529Z,12.70
2023-03-23T17:42:52.566Z,12.70
2023-03-23T17:45:19.817Z,12.70
2023-03-23T17:47:46.972Z,12.70
2023-03-23T17:50:14.807Z,12.60
2023-03-23T17:52:43.763Z,12.60
2023-03-23T17:55:11.420Z,12.60
2023-03-23T17:57:38.717Z,12.50
2023-03-23T18:00:10.349Z,12.50
2023-03-23T18:02:38.029Z,12.50
2023-03-23T18:05:08.265Z,12.40
2023-03-23T18:07:36.048Z,12.40
2023-03-23T18:10:04.403Z,12.30
2023-03-23T18:12:31.523Z,12.20
2023-03-23T18:14:59.383Z,12.20
2023-03-23T18:17:27.073Z,12.10
2023-03-23T18:19:54.541Z,12.00
2023-03-23T18:22:22.330Z,12.00
2023-03-23T18:24:50.016Z,11.90
2023-03-23T18:27:17.404Z,11.90
2023-03-23T18:29:44.630Z,11.80
2023-03-23T18:32:11.987Z,11.80
2023-03-23T18:34:41.836Z,11.90
2023-03-23T18:37:09.493Z,11.80
2023-03-23T18:39:38.076Z,11.70
2023-03-23T18:42:06.518Z,11.70
2023-03-23T18:44:34.245Z,11.70
2023-03-23T18:47:03.421Z,11.60
2023-03-23T18:49:31.449Z,11.60
2023-03-23T18:51:58.586Z,11.60
2023-03-23T18:54:28.137Z,11.60
2023-03-23T18:56:55.764Z,11.50
2023-03-23T18:59:30.631Z,11.50
2023-03-23T19:01:58.351Z,11.40
2023-03-23T19:04:25.958Z,11.40
2023-03-23T19:06:53.364Z,11.40
2023-03-23T19:09:20.698Z,11.30
2023-03-23T19:11:47.915Z,11.40
2023-03-23T19:14:15.512Z,11.40
2023-03-23T19:16:42.741Z,11.40
2023-03-23T19:19:10.344Z,11.40
2023-03-23T19:21:40.130Z,11.30
2023-03-23T19:24:08.839Z,11.30
2023-03-23T19:26:44.781Z,11.30
2023-03-23T19:31:49.495Z,11.30
2023-03-23T19:34:17.409Z,11.20
2023-03-23T19:36:48.171Z,11.20
2023-03-23T19:39:22.460Z,11.20
2023-03-23T19:41:51.096Z,11.20
2023-03-23T19:44:18.248Z,11.20
2023-03-23T19:46:48.153Z,11.20
2023-03-23T19:49:15.673Z,11.20
2023-03-23T19:51:42.862Z,11.20
2023-03-23T19:54:10.129Z,11.20
2023-03-23T19:56:40.722Z,11.20
2023-03-23T19:59:10.685Z,11.20
2023-03-23T20:01:38.284Z,11.20
2023-03-23T20:04:07.021Z,11.20
2023-03-23T20:06:34.866Z,11.20
2023-03-23T20:09:05.251Z,11.20
2023-03-23T20:11:33.573Z,11.20
2023-03-23T20:14:04.548Z,11.20
2023-03-23T20:16:33.645Z,11.10
2023-03-23T20:19:01.209Z,11.00
2023-03-23T20:21:30.766Z,11.00
2023-03-23T20:23:58.972Z,10.90
2023-03-23T20:26:37.456Z,10.90
2023-03-23T20:29:08.047Z,10.90
2023-03-23T20:31:40.916Z,10.90
2023-03-23T20:34:28.724Z,10.80
2023-03-23T20:36:58.189Z,10.90
2023-03-23T20:39:29.842Z,10.90
2023-03-23T20:42:00.674Z,11.00
2023-03-23T20:44:31.115Z,11.10
2023-03-23T20:46:58.403Z,11.20
2023-03-23T20:49:25.848Z,11.60
2023-03-23T20:51:53.727Z,11.80
2023-03-23T20:54:22.000Z,12.20
2023-03-23T20:56:49.853Z,12.30
2023-03-23T20:59:17.171Z,12.50
2023-03-23T21:01:44.798Z,12.60
2023-03-23T21:04:18.858Z,12.60
2023-03-23T21:06:52.075Z,12.90
2023-03-23T21:09:20.307Z,13.30
2023-03-23T21:11:48.147Z,13.50
2023-03-23T21:14:15.596Z,13.50
2023-03-23T21:16:44.193Z,13.50
2023-03-23T21:19:11.829Z,13.60
2023-03-23T21:21:55.804Z,13.70
2023-03-23T21:24:29.856Z,13.70
2023-03-23T21:27:00.901Z,13.80
2023-03-23T21:29:28.484Z,13.70
2023-03-23T21:34:27.556Z,13.60
2023-03-23T21:36:54.639Z,13.60
2023-03-23T21:39:22.476Z,13.70
2023-03-23T21:41:52.593Z,13.80
2023-03-23T21:44:19.728Z,14.00
2023-03-23T21:46:46.957Z,13.90
2023-03-23T21:49:14.503Z,14.00
2023-03-23T21:51:43.372Z,14.20
2023-03-23T21:54:11.927Z,14.10
2023-03-23T21:56:39.078Z,14.00
2023-03-23T21:59:07.815Z,14.00
2023-03-23T22:01:40.479Z,14.00
2023-03-23T22:04:08.125Z,14.00
2023-03-23T22:06:35.885Z,14.10
2023-03-23T22:09:05.623Z,14.00
2023-03-23T22:11:34.050Z,14.00
2023-03-23T22:14:01.993Z,13.90
2023-03-23T22:16:29.702Z,14.00
2023-03-23T22:19:00.186Z,14.00
2023-03-23T22:21:28.617Z,14.00
2023-03-23T22:24:00.013Z,14.00
2023-03-23T22:26:28.836Z,13.90
2023-03-23T22:28:57.099Z,13.90
2023-03-23T22:31:28.741Z,13.80
2023-03-23T22:33:57.559Z,13.80
2023-03-23T22:36:27.822Z,13.70
2023-03-23T22:38:56.503Z,13.70
2023-03-23T22:41:32.802Z,13.60
2023-03-23T22:44:00.171Z,13.40
2023-03-23T22:46:27.417Z,13.30
2023-03-23T22:48:54.629Z,13.10
2023-03-23T22:51:22.568Z,12.90
2023-03-23T22:53:50.435Z,12.80
2023-03-23T22:56:18.514Z,12.70
2023-03-23T22:58:46.087Z,12.60
2023-03-23T23:01:20.652Z,12.50
2023-03-23T23:03:48.762Z,12.50
2023-03-23T23:06:17.482Z,12.40
2023-03-23T23:08:45.968Z,12.30
2023-03-23T23:11:16.456Z,12.30
2023-03-23T23:13:45.004Z,12.30
2023-03-23T23:16:14.215Z,12.30
2023-03-23T23:18:41.910Z,12.30
2023-03-23T23:21:14.408Z,12.30
2023-03-23T23:23:42.557Z,12.40
2023-03-23T23:26:10.084Z,12.30
2023-03-23T23:28:37.337Z,12.40
2023-03-23T23:31:06.441Z,12.50
2023-03-23T23:33:33.639Z,12.50
2023-03-23T23:36:02.407Z,12.60
2023-03-23T23:38:29.610Z,12.60
2023-03-23T23:40:57.025Z,12.60
2023-03-23T23:43:24.179Z,12.70
2023-03-23T23:45:51.562Z,12.80
2023-03-23T23:48:19.166Z,12.80
2023-03-23T23:50:46.401Z,12.90
2023-03-23T23:53:13.650Z,12.90
2023-03-23T23:55:40.876Z,12.80
2023-03-23T23:58:08.292Z,12.60
